Time;durP1;ratioP1;P1;durP2;ratioP2;P2;SDS_P1;SDS_P2;PMS_P1;PMS_P2;Temp;Humidity;BMP_temperature;BMP_pressure;BME280_temperature;BME280_humidity;BME280_pressure;Samples;Min_cycle;Max_cycle;Signal;HPM_P1;HPM_P2
2021/07/23 00:01:08;;;;;;;;;12.50;12.50;;;;;27.96;42.12;101439.69;4997462;28;60192;-62
2021/07/23 00:03:35;;;;;;;;;8.00;8.00;;;;;27.94;41.88;101437.16;4998980;28;51141;-61
2021/07/23 00:06:01;;;;;;;;;17.00;14.00;;;;;27.94;42.71;101439.97;4998251;28;51257;-64
2021/07/23 00:08:26;;;;;;;;;14.25;12.75;;;;;27.93;42.28;101438.28;5017133;28;51854;-61
2021/07/23 00:10:51;;;;;;;;;12.50;11.25;;;;;27.92;42.44;101436.56;5002386;28;51043;-61
2021/07/23 00:13:17;;;;;;;;;15.50;13.75;;;;;27.93;42.55;101437.41;4993782;28;51287;-62
2021/07/23 00:15:42;;;;;;;;;14.00;12.50;;;;;27.92;42.12;101441.28;5009047;28;51212;-61
2021/07/23 00:18:07;;;;;;;;;12.50;12.50;;;;;27.89;42.54;101429.56;5009744;28;51253;-61
2021/07/23 00:20:33;;;;;;;;;17.00;12.00;;;;;27.89;42.14;101431.53;4997927;28;51092;-61
2021/07/23 00:22:58;;;;;;;;;17.00;14.25;;;;;27.89;42.47;101434.31;5004182;28;57159;-61
2021/07/23 00:25:23;;;;;;;;;16.75;14.25;;;;;27.87;42.47;101420.66;5006554;28;51214;-62
2021/07/23 00:27:49;;;;;;;;;14.75;14.00;;;;;27.87;42.69;101419.81;5002522;28;52339;-62
2021/07/23 00:30:14;;;;;;;;;14.50;12.00;;;;;27.85;42.72;101422.00;5000107;28;51182;-61
2021/07/23 00:32:41;;;;;;;;;17.00;16.00;;;;;27.86;42.82;101420.91;4998481;28;51196;-61
2021/07/23 00:35:07;;;;;;;;;16.25;13.25;;;;;27.85;42.84;101413.66;5002362;28;51337;-61
2021/07/23 00:37:32;;;;;;;;;16.75;15.75;;;;;27.84;42.06;101414.75;5003963;28;51098;-61
2021/07/23 00:39:57;;;;;;;;;13.75;11.00;;;;;27.84;42.64;101417.56;5015968;28;51080;-61
2021/07/23 00:42:33;;;;;;;;;12.25;12.00;;;;;27.82;42.85;101414.16;5012394;28;51042;-63
2021/07/23 00:44:59;;;;;;;;;13.25;9.50;;;;;27.82;42.09;101419.72;5011329;28;51148;-61
2021/07/23 00:47:24;;;;;;;;;15.50;13.25;;;;;27.80;42.57;101417.19;5005664;28;61746;-61
2021/07/23 00:49:51;;;;;;;;;16.50;13.50;;;;;27.81;42.67;101418.03;5001296;28;51200;-61
2021/07/23 00:52:17;;;;;;;;;19.00;15.00;;;;;27.80;42.64;101406.06;5016265;28;51249;-61
2021/07/23 00:54:43;;;;;;;;;13.00;13.00;;;;;27.79;42.19;101409.94;5013154;28;51348;-61
2021/07/23 00:57:08;;;;;;;;;16.75;13.75;;;;;27.79;42.09;101411.91;5004182;28;51126;-60
2021/07/23 00:59:34;;;;;;;;;11.25;9.25;;;;;27.79;42.82;101411.91;5015581;28;51109;-61
2021/07/23 01:02:00;;;;;;;;;11.50;9.75;;;;;27.78;42.61;101404.66;5014722;28;51071;-58
2021/07/23 01:04:25;;;;;;;;;13.00;12.75;;;;;27.78;42.97;101401.88;5015575;28;51162;-58
2021/07/23 01:06:51;;;;;;;;;11.75;11.75;;;;;27.78;43.67;101397.13;5004659;28;51799;-58
2021/07/23 01:09:16;;;;;;;;;10.50;8.75;;;;;27.78;43.96;101386.00;5012682;28;51027;-58
2021/07/23 01:11:42;;;;;;;;;11.00;11.00;;;;;27.80;44.38;101388.53;4995550;28;51250;-59
2021/07/23 01:14:08;;;;;;;;;10.00;10.00;;;;;27.81;44.30;101379.06;4993681;28;50976;-59
2021/07/23 01:16:33;;;;;;;;;16.00;12.25;;;;;27.80;44.80;101385.75;5009218;28;51138;-59
2021/07/23 01:19:00;;;;;;;;;13.50;10.75;;;;;27.81;44.36;101376.28;4996729;28;51032;-62
2021/07/23 01:21:27;;;;;;;;;12.25;11.00;;;;;27.81;44.23;101381.84;5011073;28;51087;-59
2021/07/23 01:23:53;;;;;;;;;15.75;15.00;;;;;27.80;43.95;101378.22;5014422;28;51488;-59
2021/07/23 01:26:19;;;;;;;;;12.50;10.00;;;;;27.80;44.24;101382.97;5011409;28;51797;-59
2021/07/23 01:28:46;;;;;;;;;12.25;10.75;;;;;27.80;44.57;101377.38;5015333;28;51148;-59
2021/07/23 01:31:12;;;;;;;;;13.50;13.50;;;;;27.80;43.85;101385.75;5014705;28;51127;-59
2021/07/23 01:33:37;;;;;;;;;14.00;12.75;;;;;27.79;44.43;101384.06;5000351;28;51120;-59
2021/07/23 01:36:03;;;;;;;;;13.00;11.00;;;;;27.79;44.51;101381.28;4996552;28;58642;-58
2021/07/23 01:38:29;;;;;;;;;17.25;13.50;;;;;27.79;43.71;101386.84;5003804;28;51253;-58
2021/07/23 01:40:55;;;;;;;;;12.50;10.25;;;;;27.77;44.40;101378.75;5002759;28;51050;-58
2021/07/23 01:43:22;;;;;;;;;15.25;12.75;;;;;27.78;44.37;101383.22;4999710;28;51286;-58
2021/07/23 01:45:47;;;;;;;;;14.75;12.75;;;;;27.77;43.84;101378.75;4996221;28;51943;-59
2021/07/23 01:48:13;;;;;;;;;13.00;11.00;;;;;27.76;43.97;101377.06;5004593;28;51239;-59
2021/07/23 01:50:38;;;;;;;;;17.50;13.00;;;;;27.77;43.74;101369.56;4996372;28;51328;-58
2021/07/23 01:53:04;;;;;;;;;12.00;11.25;;;;;27.74;44.28;101368.16;4996445;28;51356;-59
2021/07/23 01:55:30;;;;;;;;;15.75;12.25;;;;;27.75;43.70;101363.41;4996133;28;52463;-59
2021/07/23 01:57:55;;;;;;;;;14.25;12.25;;;;;27.74;44.10;101372.88;5007245;28;51122;-59
2021/07/23 02:00:21;;;;;;;;;13.00;11.50;;;;;27.73;43.94;101369.25;5012571;28;51114;-59
2021/07/23 02:02:46;;;;;;;;;17.25;12.25;;;;;27.73;44.11;101366.47;4996374;28;51177;-59
2021/07/23 02:05:12;;;;;;;;;12.75;11.75;;;;;27.73;43.43;101363.69;5009766;28;52027;-59
2021/07/23 02:07:37;;;;;;;;;14.50;12.00;;;;;27.73;44.04;101362.84;5006427;28;50925;-59
2021/07/23 02:10:07;;;;;;;;;12.75;12.00;;;;;27.72;44.07;101358.34;5003295;28;51157;-59
2021/07/23 02:12:33;;;;;;;;;12.25;11.00;;;;;27.71;43.58;101365.84;5006779;28;51299;-58
2021/07/23 02:14:58;;;;;;;;;13.25;12.00;;;;;27.72;43.46;101363.91;4995893;28;51054;-59
2021/07/23 02:17:23;;;;;;;;;14.25;10.75;;;;;27.71;43.36;101363.06;5014014;28;51148;-59
2021/07/23 02:19:49;;;;;;;;;16.50;15.25;;;;;27.69;43.60;101359.72;5011636;28;51283;-59
2021/07/23 02:22:15;;;;;;;;;10.00;9.50;;;;;27.69;43.58;101361.66;4996152;28;51192;-59
2021/07/23 02:24:40;;;;;;;;;14.75;14.75;;;;;27.68;43.87;101362.75;4995596;28;51055;-59
2021/07/23 02:27:05;;;;;;;;;14.50;13.25;;;;;27.69;43.97;101364.44;5000192;28;51142;-59
2021/07/23 02:29:31;;;;;;;;;13.00;9.50;;;;;27.69;44.01;101362.50;5013287;28;51103;-59
2021/07/23 02:31:56;;;;;;;;;10.25;10.25;;;;;27.67;43.96;101353.56;4999615;28;51203;-59
2021/07/23 02:34:22;;;;;;;;;14.50;13.00;;;;;27.66;43.80;101349.09;4995486;28;51876;-61
2021/07/23 02:36:48;;;;;;;;;10.25;10.25;;;;;27.66;43.25;101356.63;5003904;28;51313;-59
2021/07/23 02:39:13;;;;;;;;;14.00;12.00;;;;;27.65;43.49;101360.47;5002614;28;51277;-59
2021/07/23 02:41:38;;;;;;;;;13.25;10.25;;;;;27.65;43.89;101357.69;5014158;28;50972;-59
2021/07/23 02:44:04;;;;;;;;;17.75;15.25;;;;;27.64;43.91;101356.00;5004784;28;56514;-59
2021/07/23 02:46:29;;;;;;;;;10.50;10.50;;;;;27.63;43.86;101348.75;5014985;28;51114;-58
2021/07/23 02:48:55;;;;;;;;;13.50;12.75;;;;;27.61;43.49;101347.06;5013738;28;51295;-59
2021/07/23 02:51:20;;;;;;;;;19.00;11.50;;;;;27.61;43.61;101347.06;5006390;28;51615;-59
2021/07/23 02:53:46;;;;;;;;;12.00;10.00;;;;;27.60;43.13;101344.53;5014779;28;51170;-61
2021/07/23 02:56:11;;;;;;;;;13.75;13.75;;;;;27.59;43.66;101342.84;5014753;28;51185;-59
2021/07/23 02:58:40;;;;;;;;;14.00;10.50;;;;;27.59;43.41;101343.69;4996853;28;50996;-59
2021/07/23 03:01:05;;;;;;;;;14.25;10.50;;;;;27.59;43.48;101337.28;4995743;28;51308;-59
2021/07/23 03:03:30;;;;;;;;;16.25;13.50;;;;;27.57;43.86;101326.41;4995258;28;51322;-59
2021/07/23 03:05:57;;;;;;;;;13.75;13.75;;;;;27.57;43.87;101331.16;5003346;28;52462;-59
2021/07/23 03:08:23;;;;;;;;;12.75;10.00;;;;;27.58;43.66;101330.03;4996488;28;51570;-59
2021/07/23 03:10:48;;;;;;;;;13.75;10.50;;;;;27.56;43.72;101333.09;5014756;28;50976;-59
2021/07/23 03:13:13;;;;;;;;;13.25;13.25;;;;;27.55;43.60;101336.97;4999597;28;51071;-59
2021/07/23 03:15:39;;;;;;;;;13.75;10.75;;;;;27.54;43.58;101323.31;5012942;28;50914;-58
2021/07/23 03:18:04;;;;;;;;;13.00;12.00;;;;;27.53;43.29;101330.84;5004239;28;51197;-58
2021/07/23 03:20:29;;;;;;;;;10.00;10.00;;;;;27.52;43.63;101329.16;4997869;28;51355;-59
2021/07/23 03:22:54;;;;;;;;;9.75;9.75;;;;;27.52;43.19;101319.97;4998109;28;56409;-60
2021/07/23 03:25:20;;;;;;;;;15.50;13.50;;;;;27.52;43.64;101337.50;4997543;28;51261;-59
2021/07/23 03:27:45;;;;;;;;;15.25;10.75;;;;;27.50;43.08;101327.69;5012774;28;50979;-59
2021/07/23 03:30:11;;;;;;;;;10.50;10.50;;;;;27.50;43.35;101324.91;5016439;28;51048;-59
2021/07/23 03:32:36;;;;;;;;;12.75;11.75;;;;;27.49;43.74;101320.47;5007261;28;51904;-59
2021/07/23 03:35:02;;;;;;;;;11.25;10.75;;;;;27.48;43.06;101321.56;5005827;28;52266;-59
2021/07/23 03:37:27;;;;;;;;;16.25;15.75;;;;;27.47;43.61;101329.06;4999567;28;50945;-59
2021/07/23 03:39:53;;;;;;;;;13.50;11.50;;;;;27.46;43.41;101329.31;4999052;28;51092;-59
2021/07/23 03:42:18;;;;;;;;;11.00;10.50;;;;;27.46;43.19;101332.94;4993811;28;51081;-59
2021/07/23 03:44:43;;;;;;;;;14.00;12.25;;;;;27.45;43.80;101324.88;4998367;28;51151;-59
2021/07/23 03:47:10;;;;;;;;;12.50;10.50;;;;;27.45;43.81;101327.66;4999319;28;51135;-59
2021/07/23 03:49:35;;;;;;;;;11.00;8.25;;;;;27.43;43.44;101314.00;5006555;28;51159;-59
2021/07/23 03:52:00;;;;;;;;;14.00;10.50;;;;;27.43;43.23;101316.78;5017337;28;51937;-59
2021/07/23 03:54:26;;;;;;;;;15.50;15.50;;;;;27.43;43.39;101299.25;5017477;28;51075;-59
2021/07/23 03:56:51;;;;;;;;;13.00;13.00;;;;;27.41;43.45;101291.16;5015274;28;52978;-59
2021/07/23 03:59:16;;;;;;;;;11.75;10.50;;;;;27.42;43.41;101272.53;5017315;28;51318;-59
2021/07/23 04:01:42;;;;;;;;;15.75;13.50;;;;;27.40;43.17;101274.72;5016925;28;62170;-59
2021/07/23 04:04:07;;;;;;;;;14.00;14.00;;;;;27.39;43.64;101265.53;5017299;28;51115;-59
2021/07/23 04:06:32;;;;;;;;;12.00;11.75;;;;;27.39;43.40;101261.91;5015330;28;51372;-59
2021/07/23 04:08:58;;;;;;;;;15.75;13.00;;;;;27.39;43.74;101248.00;5001063;28;51165;-59
2021/07/23 04:11:32;;;;;;;;;8.00;8.00;;;;;27.38;43.63;101255.50;4997289;28;60087;-59
2021/07/23 04:13:57;;;;;;;;;12.25;10.50;;;;;27.37;43.08;101267.72;5014232;28;51120;-59
2021/07/23 04:16:22;;;;;;;;;14.00;12.75;;;;;27.37;43.31;101259.38;5008273;28;51226;-59
2021/07/23 04:18:48;;;;;;;;;14.50;12.25;;;;;27.36;43.73;101265.22;4997940;28;51340;-58
2021/07/23 04:21:13;;;;;;;;;14.50;11.25;;;;;27.35;43.76;101272.72;4997448;28;56539;-59
2021/07/23 04:23:38;;;;;;;;;15.50;13.75;;;;;27.34;43.69;101271.03;5016341;28;55607;-60
2021/07/23 04:26:04;;;;;;;;;9.25;9.25;;;;;27.34;43.91;101268.25;5003704;28;51165;-59
2021/07/23 04:28:29;;;;;;;;;12.00;10.25;;;;;27.34;43.21;101268.25;4997856;28;51398;-59
2021/07/23 04:30:55;;;;;;;;;11.50;11.50;;;;;27.32;43.58;101253.78;4997446;28;51903;-61
2021/07/23 04:33:20;;;;;;;;;15.00;15.00;;;;;27.31;43.28;101257.66;4997249;28;51072;-59
2021/07/23 04:35:45;;;;;;;;;13.50;11.00;;;;;27.30;43.17;101256.81;4998477;28;51150;-60
2021/07/23 04:38:11;;;;;;;;;13.75;13.00;;;;;27.30;43.84;101255.94;5005423;28;50942;-59
2021/07/23 04:40:36;;;;;;;;;15.25;12.75;;;;;27.28;43.96;101259.00;5016404;28;51876;-60
2021/07/23 04:43:01;;;;;;;;;11.75;11.75;;;;;27.28;43.12;101259.00;5005175;28;53974;-59
2021/07/23 04:45:27;;;;;;;;;12.00;11.25;;;;;27.28;43.91;101258.16;5002168;28;51125;-59
2021/07/23 04:47:52;;;;;;;;;14.50;11.75;;;;;27.27;43.30;101254.53;4997501;28;51419;-59
2021/07/23 04:50:18;;;;;;;;;12.50;12.25;;;;;27.28;43.98;101255.38;4997195;28;52272;-59
2021/07/23 04:52:43;;;;;;;;;12.00;11.75;;;;;27.27;43.34;101259.25;5012837;28;51176;-59
2021/07/23 04:55:09;;;;;;;;;15.25;11.50;;;;;27.25;43.53;101253.13;5015234;28;51153;-63
2021/07/23 04:57:44;;;;;;;;;11.75;11.00;;;;;27.25;43.63;101255.88;5000406;28;51143;-59
2021/07/23 05:00:10;;;;;;;;;10.75;10.00;;;;;27.25;43.72;101264.22;5010659;28;51965;-59
2021/07/23 05:02:36;;;;;;;;;13.25;12.50;;;;;27.25;43.91;101264.22;4998192;28;51669;-59
2021/07/23 05:05:02;;;;;;;;;13.50;12.25;;;;;27.24;43.28;101268.13;4998700;28;51132;-59
2021/07/23 05:07:27;;;;;;;;;16.75;13.75;;;;;27.23;43.73;101270.06;5010037;28;51143;-59
2021/07/23 05:09:52;;;;;;;;;13.00;11.25;;;;;27.22;43.41;101273.09;5008447;28;59722;-59
2021/07/23 05:12:18;;;;;;;;;14.00;12.25;;;;;27.21;43.56;101263.09;5010446;28;55869;-59
2021/07/23 05:14:43;;;;;;;;;13.75;12.00;;;;;27.20;43.87;101261.38;5009980;28;50959;-59
2021/07/23 05:17:10;;;;;;;;;16.00;12.25;;;;;27.19;43.29;101254.97;4997187;28;51331;-60
2021/07/23 05:19:36;;;;;;;;;16.00;16.00;;;;;27.18;43.39;101258.00;4997574;28;51063;-60
2021/07/23 05:22:02;;;;;;;;;15.50;13.75;;;;;27.18;43.17;101255.22;5000625;28;51351;-59
2021/07/23 05:24:30;;;;;;;;;15.75;13.75;;;;;27.16;43.65;101263.84;4996560;28;51181;-59
2021/07/23 05:26:55;;;;;;;;;14.75;12.00;;;;;27.13;43.13;101256.03;4997477;28;51278;-59
2021/07/23 05:29:20;;;;;;;;;13.75;12.25;;;;;27.10;43.52;101250.97;5022680;28;53175;-59
2021/07/23 05:31:46;;;;;;;;;14.00;11.75;;;;;27.08;43.00;101247.59;5003691;28;52527;-60
2021/07/23 05:34:11;;;;;;;;;14.25;13.25;;;;;27.06;43.74;101252.56;4995074;28;51173;-58
2021/07/23 05:36:36;;;;;;;;;17.25;16.50;;;;;27.05;43.13;101248.13;5014238;28;51293;-58
2021/07/23 05:39:02;;;;;;;;;18.25;15.00;;;;;27.04;43.29;101247.28;4992523;28;51335;-60
2021/07/23 05:41:27;;;;;;;;;13.75;13.75;;;;;27.02;43.67;101248.63;4997801;28;51179;-60
2021/07/23 05:43:52;;;;;;;;;19.00;15.50;;;;;27.01;43.21;101250.53;4995704;28;51175;-59
2021/07/23 05:46:18;;;;;;;;;13.00;13.00;;;;;26.99;43.43;101240.75;4995928;28;51849;-59
2021/07/23 05:48:43;;;;;;;;;14.50;14.00;;;;;26.98;43.29;101239.91;4995933;28;51869;-59
2021/07/23 05:51:09;;;;;;;;;14.75;13.00;;;;;26.96;43.50;101242.13;5012230;28;51665;-60
2021/07/23 05:53:35;;;;;;;;;17.50;14.75;;;;;26.95;43.33;101248.78;5003873;28;51492;-60
2021/07/23 05:56:01;;;;;;;;;17.00;14.50;;;;;26.95;43.25;101236.81;4990411;28;51240;-60
2021/07/23 05:58:27;;;;;;;;;13.75;13.75;;;;;26.95;43.94;101234.88;4990255;28;51162;-60
2021/07/23 06:00:54;;;;;;;;;14.50;14.50;;;;;26.94;43.74;101233.19;4995307;28;51140;-59
2021/07/23 06:03:19;;;;;;;;;13.75;13.75;;;;;26.93;43.23;101228.75;4995095;28;51985;-60
2021/07/23 06:05:45;;;;;;;;;14.75;13.00;;;;;26.94;43.88;101229.56;5007805;28;51475;-60
2021/07/23 06:08:10;;;;;;;;;11.25;11.25;;;;;26.92;43.30;101224.28;5014669;28;51720;-60
2021/07/23 06:10:35;;;;;;;;;17.75;15.00;;;;;26.93;43.68;101212.06;5005834;28;51101;-60
2021/07/23 06:13:01;;;;;;;;;15.50;15.50;;;;;26.93;43.41;101209.28;5005095;28;51336;-60
2021/07/23 06:15:26;;;;;;;;;14.25;13.75;;;;;26.94;44.18;101208.19;5000906;28;51287;-60
2021/07/23 06:17:52;;;;;;;;;16.50;12.00;;;;;26.93;44.32;101202.88;4995670;28;51196;-60
2021/07/23 06:20:17;;;;;;;;;14.00;14.00;;;;;26.91;44.32;101194.81;4996951;28;51045;-61
2021/07/23 06:22:42;;;;;;;;;17.50;15.25;;;;;26.93;44.04;101202.88;4996762;28;51150;-61
2021/07/23 06:25:08;;;;;;;;;13.25;12.50;;;;;26.92;44.04;101203.97;4994508;28;51181;-61
2021/07/23 06:27:34;;;;;;;;;20.50;18.75;;;;;26.90;43.99;101198.69;4994136;28;51288;-61
2021/07/23 06:29:59;;;;;;;;;15.00;15.00;;;;;26.89;44.07;101199.78;4997474;28;51097;-61
2021/07/23 06:32:26;;;;;;;;;15.25;14.00;;;;;26.87;44.01;101196.41;4993169;28;51125;-60
2021/07/23 06:34:52;;;;;;;;;17.25;15.25;;;;;26.88;44.11;101198.06;4993430;28;50999;-59
2021/07/23 06:37:20;;;;;;;;;20.00;15.00;;;;;26.88;43.88;101192.50;4992987;28;51786;-61
2021/07/23 06:39:49;;;;;;;;;18.75;17.00;;;;;26.87;43.58;101190.84;5004245;28;51213;-60
2021/07/23 06:42:15;;;;;;;;;18.25;16.75;;;;;26.84;43.68;101191.34;4994601;28;51147;-61
2021/07/23 06:44:41;;;;;;;;;19.25;19.25;;;;;26.79;43.56;101194.09;4990477;28;52304;-62
2021/07/23 06:47:06;;;;;;;;;15.00;12.75;;;;;26.75;43.28;101190.94;4991087;28;51128;-60
2021/07/23 06:49:31;;;;;;;;;20.00;15.50;;;;;26.74;43.50;101191.22;4995260;28;51210;-61
2021/07/23 06:51:57;;;;;;;;;16.00;15.00;;;;;26.74;43.43;101185.66;5002334;28;51262;-61
2021/07/23 06:54:22;;;;;;;;;17.25;14.75;;;;;26.73;43.97;101192.31;5005861;28;51134;-60
2021/07/23 06:56:50;;;;;;;;;17.00;17.00;;;;;26.73;43.40;101184.81;5001556;28;50964;-60
2021/07/23 06:59:15;;;;;;;;;21.50;17.50;;;;;26.72;43.51;101182.31;5008483;28;51177;-61
2021/07/23 07:01:40;;;;;;;;;21.50;15.75;;;;;26.74;43.66;101185.66;4996757;28;51217;-61
2021/07/23 07:04:06;;;;;;;;;14.25;14.25;;;;;26.75;43.90;101181.78;5002873;28;51058;-61
2021/07/23 07:06:31;;;;;;;;;21.25;18.50;;;;;26.76;43.57;101186.22;5010961;28;52459;-61
2021/07/23 07:08:56;;;;;;;;;17.75;16.00;;;;;26.77;43.76;101185.97;5014962;28;51221;-61
2021/07/23 07:11:22;;;;;;;;;21.00;16.25;;;;;26.79;43.47;101171.00;5013399;28;51422;-61
2021/07/23 07:13:47;;;;;;;;;20.00;19.00;;;;;26.80;43.99;101181.88;4999404;28;51167;-61
2021/07/23 07:16:12;;;;;;;;;15.75;15.50;;;;;26.80;43.88;101170.75;5014267;28;52018;-61
2021/07/23 07:18:38;;;;;;;;;16.00;16.00;;;;;26.83;43.71;101169.38;5005065;28;51226;-61
2021/07/23 07:21:05;;;;;;;;;16.00;16.00;;;;;26.85;43.41;101158.84;4998792;28;51391;-61
2021/07/23 07:23:30;;;;;;;;;20.00;19.50;;;;;26.86;43.46;101154.97;5009917;28;51019;-61
2021/07/23 07:25:56;;;;;;;;;14.00;12.75;;;;;26.86;43.89;101160.53;5001701;28;51026;-61
2021/07/23 07:28:21;;;;;;;;;16.00;16.00;;;;;26.89;43.63;101157.25;5005848;28;51059;-61
2021/07/23 07:30:47;;;;;;;;;19.25;17.75;;;;;26.90;43.88;101161.72;4999885;28;51378;-61
2021/07/23 07:33:13;;;;;;;;;18.50;15.25;;;;;26.90;43.75;101162.53;5001162;28;51266;-62
2021/07/23 07:35:38;;;;;;;;;18.75;18.25;;;;;26.92;43.95;101171.47;5003785;28;51864;-61
2021/07/23 07:38:03;;;;;;;;;16.75;16.75;;;;;26.94;43.91;101171.19;5010989;28;51203;-59
2021/07/23 07:40:29;;;;;;;;;22.75;17.50;;;;;26.95;44.22;101170.94;5000411;28;51486;-59
2021/07/23 07:42:54;;;;;;;;;16.75;16.25;;;;;26.96;44.38;101171.78;4996204;28;51251;-60
2021/07/23 07:45:19;;;;;;;;;19.00;16.00;;;;;26.97;44.60;101173.44;5004556;28;51906;-59
2021/07/23 07:47:45;;;;;;;;;17.25;16.00;;;;;26.99;44.73;101171.25;4997231;28;51193;-59
2021/07/23 07:50:10;;;;;;;;;22.00;19.00;;;;;27.00;44.76;101161.84;4998789;28;51536;-60
2021/07/23 07:52:36;;;;;;;;;22.25;20.00;;;;;27.02;44.46;101160.50;4995019;28;51104;-62
2021/07/23 07:55:01;;;;;;;;;22.75;20.00;;;;;27.05;44.74;101164.69;5003970;28;51229;-60
2021/07/23 07:57:26;;;;;;;;;20.50;19.25;;;;;27.06;44.16;101157.19;4996488;28;51304;-61
2021/07/23 07:59:52;;;;;;;;;18.75;16.75;;;;;27.07;44.60;101151.38;5004850;28;51195;-60
2021/07/23 08:02:18;;;;;;;;;16.25;15.25;;;;;27.09;44.37;101159.44;5009891;28;51797;-56
2021/07/23 08:04:43;;;;;;;;;18.50;15.25;;;;;27.10;44.72;101156.44;5020558;28;52130;-58
2021/07/23 08:07:10;;;;;;;;;20.00;19.25;;;;;27.13;44.34;101157.84;5004832;28;50888;-59
2021/07/23 08:09:52;;;;;;;;;18.50;17.50;;;;;27.17;44.61;101150.66;5012155;28;51311;-59
2021/07/23 08:12:18;;;;;;;;;23.75;21.00;;;;;27.21;44.71;101151.84;5013034;28;51253;-58
2021/07/23 08:14:44;;;;;;;;;20.00;19.00;;;;;27.23;44.74;101146.84;4997342;28;51310;-62
2021/07/23 08:17:09;;;;;;;;;20.75;19.50;;;;;27.25;44.49;101144.63;4999070;28;51096;-61
2021/07/23 08:19:37;;;;;;;;;25.00;20.75;;;;;27.25;44.92;101141.84;5002443;28;51137;-57
2021/07/23 08:22:03;;;;;;;;;21.25;20.50;;;;;27.27;44.81;101140.50;4994143;28;50991;-58
2021/07/23 08:24:29;;;;;;;;;25.75;21.25;;;;;27.33;44.74;101133.06;4996390;28;51892;-58
2021/07/23 08:26:54;;;;;;;;;30.75;22.25;;;;;27.39;44.25;101137.56;5012699;28;51039;-58
2021/07/23 08:29:20;;;;;;;;;21.50;21.00;;;;;27.42;44.39;101131.50;5002531;28;51197;-59
2021/07/23 08:31:45;;;;;;;;;20.75;19.00;;;;;27.46;44.61;101126.22;4999776;28;51221;-58
2021/07/23 08:34:10;;;;;;;;;22.00;20.75;;;;;27.48;44.15;101124.84;5014063;28;51566;-61
2021/07/23 08:36:36;;;;;;;;;20.50;18.50;;;;;27.50;45.00;101128.22;4996843;28;51350;-59
2021/07/23 08:39:02;;;;;;;;;20.50;18.00;;;;;27.54;45.32;101132.16;5003088;28;51082;-60
2021/07/23 08:41:29;;;;;;;;;26.00;25.00;;;;;27.66;44.70;101125.63;4999200;28;51185;-64
2021/07/23 08:43:55;;;;;;;;;29.25;25.75;;;;;27.79;45.01;101130.75;5013553;28;52638;-61
2021/07/23 08:46:20;;;;;;;;;32.00;29.00;;;;;27.84;44.75;101123.28;5013160;28;51186;-61
2021/07/23 08:48:45;;;;;;;;;29.00;23.25;;;;;27.86;44.48;101112.72;5008603;28;51109;-61
2021/07/23 08:51:11;;;;;;;;;25.75;23.00;;;;;27.87;44.42;101111.63;4997419;28;50948;-62
2021/07/23 08:53:36;;;;;;;;;31.25;29.75;;;;;27.88;44.37;101107.72;5000973;28;50962;-62
2021/07/23 08:56:01;;;;;;;;;28.00;23.50;;;;;27.89;43.83;101103.84;5011580;28;50959;-63
2021/07/23 08:58:28;;;;;;;;;22.50;20.75;;;;;27.89;44.45;101111.34;5006802;28;51147;-60
2021/07/23 09:00:57;;;;;;;;;25.00;22.75;;;;;27.88;44.48;101110.50;5015450;28;51067;-59
2021/07/23 09:03:28;;;;;;;;;28.00;24.25;;;;;27.87;43.82;101106.06;5001669;28;51103;-60
2021/07/23 09:05:53;;;;;;;;;23.25;19.50;;;;;27.86;44.13;101098.81;5004897;28;51504;-59
2021/07/23 09:08:20;;;;;;;;;18.25;17.50;;;;;27.86;44.08;101095.19;4993435;28;51196;-59
2021/07/23 09:10:47;;;;;;;;;25.50;22.75;;;;;27.85;44.00;101097.13;4988872;28;51392;-59
2021/07/23 09:13:23;;;;;;;;;23.00;22.25;;;;;27.86;44.28;101100.75;4986712;28;52012;-59
2021/07/23 09:15:49;;;;;;;;;19.75;18.25;;;;;27.85;44.12;101094.34;4992713;28;51444;-59
2021/07/23 09:18:30;;;;;;;;;22.25;21.50;;;;;27.86;44.91;101086.84;4994508;28;51975;-60
2021/07/23 09:20:58;;;;;;;;;21.50;19.75;;;;;27.88;44.70;101084.63;4990681;28;51459;-59
2021/07/23 09:23:29;;;;;;;;;30.25;25.25;;;;;27.89;44.90;101067.66;4991659;28;51091;-58
2021/07/23 09:25:54;;;;;;;;;24.75;21.25;;;;;27.93;44.75;101081.03;4993075;28;51142;-58
2021/07/23 09:28:26;;;;;;;;;24.00;21.00;;;;;27.94;44.39;101077.16;4991793;28;51070;-58
2021/07/23 09:30:52;;;;;;;;;22.75;22.00;;;;;27.94;44.77;101078.00;4992435;28;51142;-59
2021/07/23 09:33:45;;;;;;;;;21.75;19.25;;;;;27.95;44.74;101078.84;4992707;28;52861;-58
2021/07/23 09:36:12;;;;;;;;;17.50;16.50;;;;;27.94;44.73;101066.84;4988299;28;51134;-58
2021/07/23 09:38:42;;;;;;;;;21.50;21.50;;;;;27.94;44.54;101064.06;4990365;28;51282;-57
2021/07/23 09:41:13;;;;;;;;;18.75;16.50;;;;;27.95;44.35;101062.97;4991441;28;51158;-59
2021/07/23 09:43:43;;;;;;;;;19.50;17.75;;;;;27.95;44.73;101056.56;5007832;28;52689;-58
2021/07/23 09:46:17;;;;;;;;;22.25;21.25;;;;;27.94;44.54;101061.28;4992543;28;51505;-59
2021/07/23 09:48:43;;;;;;;;;19.50;19.00;;;;;27.94;44.89;101054.88;4989661;28;51075;-59
2021/07/23 09:51:10;;;;;;;;;19.00;18.50;;;;;27.94;44.78;101052.94;4992029;28;51273;-61
2021/07/23 09:53:36;;;;;;;;;19.25;16.75;;;;;27.94;44.95;101041.81;4991433;28;51144;-60
2021/07/23 09:56:05;;;;;;;;;17.00;17.00;;;;;27.94;44.55;101029.84;4993966;28;51267;-59
2021/07/23 09:58:35;;;;;;;;;20.25;19.50;;;;;27.94;44.56;101030.66;4993734;28;51070;-64
2021/07/23 10:01:04;;;;;;;;;18.75;17.50;;;;;27.93;44.67;101023.44;4989753;28;51374;-59
2021/07/23 10:03:30;;;;;;;;;19.25;18.25;;;;;27.94;44.79;101016.75;4991775;28;51244;-59
2021/07/23 10:06:09;;;;;;;;;15.50;15.50;;;;;27.95;44.85;101020.38;4991750;28;51690;-60
2021/07/23 10:08:47;;;;;;;;;18.50;18.25;;;;;27.94;44.66;101008.41;4991714;28;51270;-59
2021/07/23 10:11:17;;;;;;;;;16.25;16.25;;;;;27.95;44.57;100989.75;4993344;28;51059;-59
2021/07/23 10:13:43;;;;;;;;;19.25;17.00;;;;;27.95;44.85;100995.31;4987970;28;51090;-59
2021/07/23 10:16:12;;;;;;;;;18.75;18.00;;;;;27.95;44.55;100986.97;4992413;28;51202;-59
2021/07/23 10:18:39;;;;;;;;;18.00;14.75;;;;;27.96;44.71;100989.47;4992188;28;51241;-59
2021/07/23 10:21:05;;;;;;;;;18.75;18.00;;;;;27.95;44.58;100985.00;4989525;28;51177;-59
2021/07/23 10:23:32;;;;;;;;;19.50;17.75;;;;;27.96;44.50;100981.13;4986962;28;52162;-59
2021/07/23 10:26:00;;;;;;;;;19.00;16.25;;;;;27.96;44.34;100972.75;4988182;28;51833;-59
2021/07/23 10:28:41;;;;;;;;;15.50;13.25;;;;;27.96;44.04;100963.56;4989627;28;51163;-59
2021/07/23 10:31:21;;;;;;;;;18.25;16.75;;;;;27.97;44.86;100960.50;4995209;28;51217;-58
2021/07/23 10:33:58;;;;;;;;;15.75;14.25;;;;;27.97;44.76;100956.91;4987938;28;51955;-59
2021/07/23 10:36:26;;;;;;;;;17.25;15.50;;;;;27.97;44.65;100951.31;5002983;28;51113;-58
2021/07/23 10:39:06;;;;;;;;;16.50;15.25;;;;;27.96;44.44;100942.13;5001402;28;51356;-59
2021/07/23 10:41:32;;;;;;;;;18.25;17.25;;;;;27.96;44.76;100942.13;5006468;28;51495;-58
2021/07/23 10:43:58;;;;;;;;;20.50;16.00;;;;;27.97;44.93;100942.97;4992874;28;51249;-59
2021/07/23 10:46:42;;;;;;;;;21.00;19.00;;;;;27.96;44.97;100941.31;4996353;28;51060;-59
2021/07/23 10:49:07;;;;;;;;;18.00;16.00;;;;;27.96;44.17;100928.22;5005200;28;51297;-59
2021/07/23 10:51:52;;;;;;;;;18.50;17.00;;;;;27.96;44.09;100919.03;4996137;28;51135;-59
2021/07/23 10:54:25;;;;;;;;;19.00;18.00;;;;;27.96;44.00;100917.09;4994501;28;51988;-59
2021/07/23 10:59:40;;;;;;;;;15.00;14.00;;;;;27.98;44.32;100900.09;4990507;28;51102;-59
2021/07/23 11:02:31;;;;;;;;;22.75;20.00;;;;;27.99;44.07;100899.81;4992509;28;51520;-59
2021/07/23 11:05:09;;;;;;;;;21.50;19.25;;;;;28.00;43.98;100889.53;5001785;28;51116;-59
2021/07/23 11:07:35;;;;;;;;;17.00;16.50;;;;;28.01;44.24;100892.03;4990796;28;51442;-59
2021/07/23 11:10:03;;;;;;;;;18.75;17.25;;;;;28.02;44.71;100890.09;4996712;28;51086;-58